sensor_id;sensor_type;location;lat;lon;timestamp;P1;durP1;ratioP1;P2;durP2;ratioP2
43694;SDS011;29300;43.560;1.294;2022-10-16T00:00:34;4.45;;;4.00;;
43694;SDS011;29300;43.560;1.294;2022-10-16T00:03:02;4.30;;;3.90;;
43694;SDS011;29300;43.560;1.294;2022-10-16T00:05:28;5.00;;;4.50;;
43694;SDS011;29300;43.560;1.294;2022-10-16T00:07:54;4.00;;;3.67;;
43694;SDS011;29300;43.560;1.294;2022-10-16T00:10:20;4.10;;;3.75;;
43694;SDS011;29300;43.560;1.294;2022-10-16T00:12:45;4.22;;;3.83;;
43694;SDS011;29300;43.560;1.294;2022-10-16T00:15:11;3.72;;;3.42;;
43694;SDS011;29300;43.560;1.294;2022-10-16T00:17:38;4.20;;;3.80;;
43694;SDS011;29300;43.560;1.294;2022-10-16T00:20:03;4.40;;;4.00;;
43694;SDS011;29300;43.560;1.294;2022-10-16T00:22:30;4.35;;;3.95;;
43694;SDS011;29300;43.560;1.294;2022-10-16T00:24:55;4.13;;;3.72;;
43694;SDS011;29300;43.560;1.294;2022-10-16T00:27:21;4.20;;;3.83;;
43694;SDS011;29300;43.560;1.294;2022-10-16T00:29:51;4.25;;;3.95;;
43694;SDS011;29300;43.560;1.294;2022-10-16T00:32:17;4.15;;;3.85;;
43694;SDS011;29300;43.560;1.294;2022-10-16T00:34:44;3.67;;;3.38;;
43694;SDS011;29300;43.560;1.294;2022-10-16T00:37:10;3.70;;;3.40;;
43694;SDS011;29300;43.560;1.294;2022-10-16T00:39:36;4.18;;;3.78;;
43694;SDS011;29300;43.560;1.294;2022-10-16T00:42:02;3.70;;;3.40;;
43694;SDS011;29300;43.560;1.294;2022-10-16T00:47:32;4.07;;;3.70;;
43694;SDS011;29300;43.560;1.294;2022-10-16T00:50:20;3.92;;;3.42;;
43694;SDS011;29300;43.560;1.294;2022-10-16T00:52:55;3.92;;;3.63;;
43694;SDS011;29300;43.560;1.294;2022-10-16T00:55:22;5.57;;;3.40;;
43694;SDS011;29300;43.560;1.294;2022-10-16T00:57:48;3.85;;;3.55;;
43694;SDS011;29300;43.560;1.294;2022-10-16T01:00:18;4.20;;;3.80;;
43694;SDS011;29300;43.560;1.294;2022-10-16T01:02:56;4.22;;;3.78;;
43694;SDS011;29300;43.560;1.294;2022-10-16T01:05:36;4.40;;;4.00;;
43694;SDS011;29300;43.560;1.294;2022-10-16T01:08:19;4.00;;;3.70;;
43694;SDS011;29300;43.560;1.294;2022-10-16T01:10:57;3.90;;;3.60;;
43694;SDS011;29300;43.560;1.294;2022-10-16T01:13:29;5.13;;;4.13;;
43694;SDS011;29300;43.560;1.294;2022-10-16T01:21:31;4.45;;;4.05;;
43694;SDS011;29300;43.560;1.294;2022-10-16T01:31:55;4.78;;;4.20;;
43694;SDS011;29300;43.560;1.294;2022-10-16T01:34:25;4.50;;;4.10;;
43694;SDS011;29300;43.560;1.294;2022-10-16T01:37:04;4.38;;;3.97;;
43694;SDS011;29300;43.560;1.294;2022-10-16T01:39:33;3.88;;;3.50;;
43694;SDS011;29300;43.560;1.294;2022-10-16T01:42:18;4.50;;;4.10;;
43694;SDS011;29300;43.560;1.294;2022-10-16T01:44:52;4.32;;;3.92;;
43694;SDS011;29300;43.560;1.294;2022-10-16T01:47:21;4.70;;;3.67;;
43694;SDS011;29300;43.560;1.294;2022-10-16T01:49:50;4.32;;;3.95;;
43694;SDS011;29300;43.560;1.294;2022-10-16T01:52:17;4.93;;;4.43;;
43694;SDS011;29300;43.560;1.294;2022-10-16T01:54:47;4.10;;;3.80;;
43694;SDS011;29300;43.560;1.294;2022-10-16T01:57:16;4.13;;;3.75;;
43694;SDS011;29300;43.560;1.294;2022-10-16T01:59:44;5.03;;;4.63;;
43694;SDS011;29300;43.560;1.294;2022-10-16T02:02:14;4.97;;;4.57;;
43694;SDS011;29300;43.560;1.294;2022-10-16T02:07:39;5.22;;;4.72;;
43694;SDS011;29300;43.560;1.294;2022-10-16T02:10:07;4.82;;;4.43;;
43694;SDS011;29300;43.560;1.294;2022-10-16T02:12:33;4.47;;;4.07;;
43694;SDS011;29300;43.560;1.294;2022-10-16T02:15:04;4.50;;;4.10;;
43694;SDS011;29300;43.560;1.294;2022-10-16T02:17:30;4.70;;;4.28;;
43694;SDS011;29300;43.560;1.294;2022-10-16T02:19:56;5.70;;;4.80;;
43694;SDS011;29300;43.560;1.294;2022-10-16T02:22:26;5.70;;;4.82;;
43694;SDS011;29300;43.560;1.294;2022-10-16T02:25:37;5.47;;;4.53;;
43694;SDS011;29300;43.560;1.294;2022-10-16T02:28:14;4.60;;;4.20;;
43694;SDS011;29300;43.560;1.294;2022-10-16T02:30:45;4.97;;;3.90;;
43694;SDS011;29300;43.560;1.294;2022-10-16T02:35:41;4.68;;;3.83;;
43694;SDS011;29300;43.560;1.294;2022-10-16T02:38:10;4.75;;;4.10;;
43694;SDS011;29300;43.560;1.294;2022-10-16T02:40:37;4.63;;;4.20;;
43694;SDS011;29300;43.560;1.294;2022-10-16T02:43:04;4.63;;;4.22;;
43694;SDS011;29300;43.560;1.294;2022-10-16T02:45:30;5.00;;;4.57;;
43694;SDS011;29300;43.560;1.294;2022-10-16T02:47:56;4.53;;;4.13;;
43694;SDS011;29300;43.560;1.294;2022-10-16T02:50:22;4.78;;;4.30;;
43694;SDS011;29300;43.560;1.294;2022-10-16T02:52:47;4.78;;;4.30;;
43694;SDS011;29300;43.560;1.294;2022-10-16T02:55:13;5.68;;;4.60;;
43694;SDS011;29300;43.560;1.294;2022-10-16T02:57:39;4.95;;;4.45;;
43694;SDS011;29300;43.560;1.294;2022-10-16T03:00:06;5.35;;;4.63;;
43694;SDS011;29300;43.560;1.294;2022-10-16T03:02:33;4.90;;;4.50;;
43694;SDS011;29300;43.560;1.294;2022-10-16T03:04:59;4.75;;;4.30;;
43694;SDS011;29300;43.560;1.294;2022-10-16T03:07:24;4.50;;;4.10;;
43694;SDS011;29300;43.560;1.294;2022-10-16T03:09:50;5.13;;;4.63;;
43694;SDS011;29300;43.560;1.294;2022-10-16T03:12:16;4.72;;;4.32;;
43694;SDS011;29300;43.560;1.294;2022-10-16T03:14:41;4.78;;;3.75;;
43694;SDS011;29300;43.560;1.294;2022-10-16T03:17:07;4.93;;;4.43;;
43694;SDS011;29300;43.560;1.294;2022-10-16T03:19:33;5.55;;;4.65;;
43694;SDS011;29300;43.560;1.294;2022-10-16T03:21:59;5.55;;;3.95;;
43694;SDS011;29300;43.560;1.294;2022-10-16T03:24:25;4.30;;;3.90;;
43694;SDS011;29300;43.560;1.294;2022-10-16T03:26:50;4.65;;;4.25;;
43694;SDS011;29300;43.560;1.294;2022-10-16T03:29:16;4.40;;;4.00;;
43694;SDS011;29300;43.560;1.294;2022-10-16T03:31:42;4.30;;;3.90;;
43694;SDS011;29300;43.560;1.294;2022-10-16T03:34:07;4.15;;;3.75;;
43694;SDS011;29300;43.560;1.294;2022-10-16T03:36:33;4.18;;;3.83;;
43694;SDS011;29300;43.560;1.294;2022-10-16T03:38:59;4.50;;;4.10;;
43694;SDS011;29300;43.560;1.294;2022-10-16T03:41:25;4.45;;;4.05;;
43694;SDS011;29300;43.560;1.294;2022-10-16T03:43:51;4.47;;;4.05;;
43694;SDS011;29300;43.560;1.294;2022-10-16T03:46:16;4.25;;;3.95;;
43694;SDS011;29300;43.560;1.294;2022-10-16T03:48:42;5.60;;;4.20;;
43694;SDS011;29300;43.560;1.294;2022-10-16T03:51:08;4.75;;;4.28;;
43694;SDS011;29300;43.560;1.294;2022-10-16T03:53:33;4.55;;;4.15;;
43694;SDS011;29300;43.560;1.294;2022-10-16T03:55:59;4.65;;;4.25;;
43694;SDS011;29300;43.560;1.294;2022-10-16T03:58:25;5.45;;;4.13;;
43694;SDS011;29300;43.560;1.294;2022-10-16T04:00:50;5.82;;;4.85;;
43694;SDS011;29300;43.560;1.294;2022-10-16T04:03:16;5.00;;;4.38;;
43694;SDS011;29300;43.560;1.294;2022-10-16T04:05:44;4.70;;;4.10;;
43694;SDS011;29300;43.560;1.294;2022-10-16T04:08:09;5.18;;;4.40;;
43694;SDS011;29300;43.560;1.294;2022-10-16T04:10:35;5.03;;;4.53;;
43694;SDS011;29300;43.560;1.294;2022-10-16T04:13:01;5.15;;;4.65;;
43694;SDS011;29300;43.560;1.294;2022-10-16T04:15:26;5.75;;;5.15;;
43694;SDS011;29300;43.560;1.294;2022-10-16T04:17:52;5.43;;;4.40;;
43694;SDS011;29300;43.560;1.294;2022-10-16T04:20:18;5.20;;;4.70;;
43694;SDS011;29300;43.560;1.294;2022-10-16T04:22:44;5.60;;;5.10;;
43694;SDS011;29300;43.560;1.294;2022-10-16T04:25:10;5.18;;;4.68;;
43694;SDS011;29300;43.560;1.294;2022-10-16T04:27:37;5.40;;;4.90;;
43694;SDS011;29300;43.560;1.294;2022-10-16T04:30:03;5.05;;;4.60;;
43694;SDS011;29300;43.560;1.294;2022-10-16T04:32:29;5.72;;;5.03;;
43694;SDS011;29300;43.560;1.294;2022-10-16T04:34:55;5.03;;;4.57;;
43694;SDS011;29300;43.560;1.294;2022-10-16T04:37:24;5.30;;;4.78;;
43694;SDS011;29300;43.560;1.294;2022-10-16T04:39:51;5.50;;;4.45;;
43694;SDS011;29300;43.560;1.294;2022-10-16T04:42:17;5.28;;;4.78;;
43694;SDS011;29300;43.560;1.294;2022-10-16T04:44:42;4.88;;;4.47;;
43694;SDS011;29300;43.560;1.294;2022-10-16T04:47:08;5.05;;;4.55;;
43694;SDS011;29300;43.560;1.294;2022-10-16T04:49:34;4.72;;;4.35;;
43694;SDS011;29300;43.560;1.294;2022-10-16T04:51:59;4.70;;;4.20;;
43694;SDS011;29300;43.560;1.294;2022-10-16T04:54:25;6.72;;;5.20;;
43694;SDS011;29300;43.560;1.294;2022-10-16T04:56:51;5.50;;;4.93;;
43694;SDS011;29300;43.560;1.294;2022-10-16T04:59:20;5.38;;;4.88;;
43694;SDS011;29300;43.560;1.294;2022-10-16T05:01:46;5.25;;;4.78;;
43694;SDS011;29300;43.560;1.294;2022-10-16T05:04:12;6.32;;;5.35;;
43694;SDS011;29300;43.560;1.294;2022-10-16T05:06:39;6.38;;;4.95;;
43694;SDS011;29300;43.560;1.294;2022-10-16T05:09:06;5.60;;;4.97;;
43694;SDS011;29300;43.560;1.294;2022-10-16T05:11:32;5.75;;;4.90;;
43694;SDS011;29300;43.560;1.294;2022-10-16T05:13:58;11.23;;;4.95;;
43694;SDS011;29300;43.560;1.294;2022-10-16T05:16:24;5.85;;;5.35;;
43694;SDS011;29300;43.560;1.294;2022-10-16T05:18:51;7.60;;;6.05;;
43694;SDS011;29300;43.560;1.294;2022-10-16T05:21:17;5.72;;;5.22;;
43694;SDS011;29300;43.560;1.294;2022-10-16T05:23:42;5.45;;;5.05;;
43694;SDS011;29300;43.560;1.294;2022-10-16T05:26:08;5.55;;;5.05;;
43694;SDS011;29300;43.560;1.294;2022-10-16T05:28:34;5.18;;;4.63;;
43694;SDS011;29300;43.560;1.294;2022-10-16T05:31:03;6.57;;;5.40;;
43694;SDS011;29300;43.560;1.294;2022-10-16T05:33:31;6.35;;;5.75;;
43694;SDS011;29300;43.560;1.294;2022-10-16T05:35:56;6.80;;;5.65;;
43694;SDS011;29300;43.560;1.294;2022-10-16T05:38:25;7.00;;;6.28;;
43694;SDS011;29300;43.560;1.294;2022-10-16T05:40:51;7.55;;;6.72;;
43694;SDS011;29300;43.560;1.294;2022-10-16T05:43:21;6.00;;;5.40;;
43694;SDS011;29300;43.560;1.294;2022-10-16T05:46:03;6.55;;;5.95;;
43694;SDS011;29300;43.560;1.294;2022-10-16T05:48:30;7.00;;;6.30;;
43694;SDS011;29300;43.560;1.294;2022-10-16T05:50:57;7.80;;;7.07;;
43694;SDS011;29300;43.560;1.294;2022-10-16T05:53:23;7.88;;;6.32;;
43694;SDS011;29300;43.560;1.294;2022-10-16T05:55:54;7.43;;;6.32;;
43694;SDS011;29300;43.560;1.294;2022-10-16T05:58:21;7.55;;;6.72;;
43694;SDS011;29300;43.560;1.294;2022-10-16T06:00:54;6.93;;;6.25;;
43694;SDS011;29300;43.560;1.294;2022-10-16T06:03:20;6.43;;;5.70;;
43694;SDS011;29300;43.560;1.294;2022-10-16T06:05:46;7.18;;;5.72;;
43694;SDS011;29300;43.560;1.294;2022-10-16T06:08:12;6.90;;;6.20;;
43694;SDS011;29300;43.560;1.294;2022-10-16T06:10:37;6.30;;;5.70;;
43694;SDS011;29300;43.560;1.294;2022-10-16T06:13:03;6.13;;;5.40;;
43694;SDS011;29300;43.560;1.294;2022-10-16T06:15:29;6.40;;;5.80;;
43694;SDS011;29300;43.560;1.294;2022-10-16T06:17:54;5.97;;;5.35;;
43694;SDS011;29300;43.560;1.294;2022-10-16T06:20:20;6.13;;;5.00;;
43694;SDS011;29300;43.560;1.294;2022-10-16T06:22:46;5.80;;;5.03;;
43694;SDS011;29300;43.560;1.294;2022-10-16T06:25:12;6.07;;;5.57;;
43694;SDS011;29300;43.560;1.294;2022-10-16T06:27:41;7.45;;;5.90;;
43694;SDS011;29300;43.560;1.294;2022-10-16T06:30:06;5.90;;;5.20;;
43694;SDS011;29300;43.560;1.294;2022-10-16T06:32:32;8.52;;;6.07;;
43694;SDS011;29300;43.560;1.294;2022-10-16T06:34:58;7.45;;;6.70;;
43694;SDS011;29300;43.560;1.294;2022-10-16T06:37:24;8.68;;;6.38;;
43694;SDS011;29300;43.560;1.294;2022-10-16T06:39:50;8.18;;;6.25;;
43694;SDS011;29300;43.560;1.294;2022-10-16T06:42:18;7.25;;;6.55;;
43694;SDS011;29300;43.560;1.294;2022-10-16T06:44:44;7.30;;;6.57;;
43694;SDS011;29300;43.560;1.294;2022-10-16T06:47:10;6.70;;;6.00;;
43694;SDS011;29300;43.560;1.294;2022-10-16T06:49:36;6.88;;;6.13;;
43694;SDS011;29300;43.560;1.294;2022-10-16T06:52:01;7.40;;;6.60;;
43694;SDS011;29300;43.560;1.294;2022-10-16T06:54:28;9.95;;;7.00;;
43694;SDS011;29300;43.560;1.294;2022-10-16T06:56:53;7.65;;;6.57;;
43694;SDS011;29300;43.560;1.294;2022-10-16T06:59:20;6.97;;;6.32;;
43694;SDS011;29300;43.560;1.294;2022-10-16T07:01:46;7.65;;;6.90;;
43694;SDS011;29300;43.560;1.294;2022-10-16T07:04:12;7.50;;;6.78;;
43694;SDS011;29300;43.560;1.294;2022-10-16T07:06:38;7.40;;;6.30;;
43694;SDS011;29300;43.560;1.294;2022-10-16T07:09:05;12.32;;;7.20;;
43694;SDS011;29300;43.560;1.294;2022-10-16T07:11:32;9.30;;;7.75;;
43694;SDS011;29300;43.560;1.294;2022-10-16T07:13:59;8.43;;;7.43;;
43694;SDS011;29300;43.560;1.294;2022-10-16T07:16:26;7.65;;;6.85;;
43694;SDS011;29300;43.560;1.294;2022-10-16T07:18:56;9.73;;;7.63;;
43694;SDS011;29300;43.560;1.294;2022-10-16T07:21:24;8.25;;;7.45;;
43694;SDS011;29300;43.560;1.294;2022-10-16T07:23:55;8.63;;;6.93;;
43694;SDS011;29300;43.560;1.294;2022-10-16T07:26:22;7.93;;;7.22;;
43694;SDS011;29300;43.560;1.294;2022-10-16T07:28:49;8.05;;;7.25;;
43694;SDS011;29300;43.560;1.294;2022-10-16T07:31:15;7.53;;;6.93;;
43694;SDS011;29300;43.560;1.294;2022-10-16T07:33:42;7.63;;;6.93;;
43694;SDS011;29300;43.560;1.294;2022-10-16T07:36:10;7.78;;;7.07;;
43694;SDS011;29300;43.560;1.294;2022-10-16T07:38:36;7.68;;;6.68;;
43694;SDS011;29300;43.560;1.294;2022-10-16T07:41:04;6.72;;;6.13;;
43694;SDS011;29300;43.560;1.294;2022-10-16T07:43:31;7.15;;;6.28;;
43694;SDS011;29300;43.560;1.294;2022-10-16T07:45:57;7.25;;;6.43;;
43694;SDS011;29300;43.560;1.294;2022-10-16T07:48:23;7.10;;;6.40;;
43694;SDS011;29300;43.560;1.294;2022-10-16T07:50:52;7.25;;;6.57;;
43694;SDS011;29300;43.560;1.294;2022-10-16T07:53:21;6.45;;;5.82;;
43694;SDS011;29300;43.560;1.294;2022-10-16T07:55:47;7.38;;;6.68;;
43694;SDS011;29300;43.560;1.294;2022-10-16T07:58:12;7.15;;;6.55;;
43694;SDS011;29300;43.560;1.294;2022-10-16T08:00:38;6.60;;;5.97;;
43694;SDS011;29300;43.560;1.294;2022-10-16T08:03:04;6.97;;;6.38;;
43694;SDS011;29300;43.560;1.294;2022-10-16T08:05:30;7.30;;;6.57;;
43694;SDS011;29300;43.560;1.294;2022-10-16T08:07:57;7.43;;;6.50;;
43694;SDS011;29300;43.560;1.294;2022-10-16T08:10:24;7.47;;;6.72;;
43694;SDS011;29300;43.560;1.294;2022-10-16T08:12:51;6.97;;;6.15;;
43694;SDS011;29300;43.560;1.294;2022-10-16T08:15:18;7.07;;;6.47;;
43694;SDS011;29300;43.560;1.294;2022-10-16T08:17:44;6.68;;;6.00;;
43694;SDS011;29300;43.560;1.294;2022-10-16T08:20:10;8.77;;;6.82;;
43694;SDS011;29300;43.560;1.294;2022-10-16T08:22:36;7.00;;;6.32;;
43694;SDS011;29300;43.560;1.294;2022-10-16T08:25:03;7.20;;;6.50;;
43694;SDS011;29300;43.560;1.294;2022-10-16T08:27:32;7.07;;;6.38;;
43694;SDS011;29300;43.560;1.294;2022-10-16T08:29:58;7.00;;;6.25;;
43694;SDS011;29300;43.560;1.294;2022-10-16T08:32:24;7.78;;;6.43;;
43694;SDS011;29300;43.560;1.294;2022-10-16T08:34:49;6.60;;;6.00;;
43694;SDS011;29300;43.560;1.294;2022-10-16T08:37:15;7.78;;;6.28;;
43694;SDS011;29300;43.560;1.294;2022-10-16T08:39:41;6.93;;;6.07;;
43694;SDS011;29300;43.560;1.294;2022-10-16T08:47:43;6.65;;;5.95;;
43694;SDS011;29300;43.560;1.294;2022-10-16T08:50:24;6.50;;;5.68;;
43694;SDS011;29300;43.560;1.294;2022-10-16T08:52:52;5.30;;;4.80;;
43694;SDS011;29300;43.560;1.294;2022-10-16T08:55:24;5.82;;;5.32;;
43694;SDS011;29300;43.560;1.294;2022-10-16T08:57:55;6.85;;;5.30;;
43694;SDS011;29300;43.560;1.294;2022-10-16T09:00:21;6.78;;;6.18;;
43694;SDS011;29300;43.560;1.294;2022-10-16T09:02:56;7.85;;;6.63;;
43694;SDS011;29300;43.560;1.294;2022-10-16T09:11:26;7.50;;;6.85;;
43694;SDS011;29300;43.560;1.294;2022-10-16T09:17:04;8.50;;;7.70;;
43694;SDS011;29300;43.560;1.294;2022-10-16T09:19:49;8.98;;;7.05;;
43694;SDS011;29300;43.560;1.294;2022-10-16T09:22:21;8.75;;;6.82;;
43694;SDS011;29300;43.560;1.294;2022-10-16T09:24:51;7.18;;;6.57;;
43694;SDS011;29300;43.560;1.294;2022-10-16T09:27:18;8.00;;;7.20;;
43694;SDS011;29300;43.560;1.294;2022-10-16T09:29:44;8.40;;;7.60;;
43694;SDS011;29300;43.560;1.294;2022-10-16T09:32:11;7.82;;;7.00;;
43694;SDS011;29300;43.560;1.294;2022-10-16T09:34:47;7.93;;;7.07;;
43694;SDS011;29300;43.560;1.294;2022-10-16T09:37:17;8.20;;;7.45;;
43694;SDS011;29300;43.560;1.294;2022-10-16T09:39:53;7.32;;;6.63;;
43694;SDS011;29300;43.560;1.294;2022-10-16T09:42:24;10.52;;;8.02;;
43694;SDS011;29300;43.560;1.294;2022-10-16T09:44:55;8.73;;;7.63;;
43694;SDS011;29300;43.560;1.294;2022-10-16T09:47:25;7.90;;;7.10;;
43694;SDS011;29300;43.560;1.294;2022-10-16T09:52:21;8.30;;;7.50;;
43694;SDS011;29300;43.560;1.294;2022-10-16T09:54:50;9.85;;;8.65;;
43694;SDS011;29300;43.560;1.294;2022-10-16T09:57:17;8.05;;;7.22;;
43694;SDS011;29300;43.560;1.294;2022-10-16T09:59:50;8.50;;;7.60;;
43694;SDS011;29300;43.560;1.294;2022-10-16T10:02:18;7.85;;;7.15;;
43694;SDS011;29300;43.560;1.294;2022-10-16T10:04:53;7.78;;;7.03;;
43694;SDS011;29300;43.560;1.294;2022-10-16T10:07:21;7.32;;;6.50;;
43694;SDS011;29300;43.560;1.294;2022-10-16T10:09:50;7.78;;;6.88;;
43694;SDS011;29300;43.560;1.294;2022-10-16T10:12:26;10.88;;;7.75;;
43694;SDS011;29300;43.560;1.294;2022-10-16T10:14:57;7.70;;;6.93;;
43694;SDS011;29300;43.560;1.294;2022-10-16T10:17:28;8.93;;;7.70;;
43694;SDS011;29300;43.560;1.294;2022-10-16T10:19:56;8.23;;;6.75;;
43694;SDS011;29300;43.560;1.294;2022-10-16T10:22:39;9.43;;;7.40;;
43694;SDS011;29300;43.560;1.294;2022-10-16T10:27:39;9.52;;;7.38;;
43694;SDS011;29300;43.560;1.294;2022-10-16T10:30:20;9.18;;;7.32;;
43694;SDS011;29300;43.560;1.294;2022-10-16T10:33:37;10.93;;;7.65;;
43694;SDS011;29300;43.560;1.294;2022-10-16T10:39:04;9.23;;;7.20;;
43694;SDS011;29300;43.560;1.294;2022-10-16T10:55:16;8.70;;;6.50;;
43694;SDS011;29300;43.560;1.294;2022-10-16T10:58:29;8.02;;;6.35;;
43694;SDS011;29300;43.560;1.294;2022-10-16T11:01:23;8.48;;;6.30;;
43694;SDS011;29300;43.560;1.294;2022-10-16T11:07:15;6.43;;;5.72;;
43694;SDS011;29300;43.560;1.294;2022-10-16T11:09:48;6.97;;;6.15;;
43694;SDS011;29300;43.560;1.294;2022-10-16T11:12:39;7.75;;;6.75;;
43694;SDS011;29300;43.560;1.294;2022-10-16T11:15:14;10.05;;;6.70;;
43694;SDS011;29300;43.560;1.294;2022-10-16T11:20:41;7.25;;;6.18;;
43694;SDS011;29300;43.560;1.294;2022-10-16T11:23:22;7.25;;;6.55;;
43694;SDS011;29300;43.560;1.294;2022-10-16T11:25:51;6.68;;;5.80;;
43694;SDS011;29300;43.560;1.294;2022-10-16T11:28:25;6.97;;;5.95;;
43694;SDS011;29300;43.560;1.294;2022-10-16T11:31:29;8.32;;;5.50;;
43694;SDS011;29300;43.560;1.294;2022-10-16T11:37:43;7.85;;;5.80;;
43694;SDS011;29300;43.560;1.294;2022-10-16T11:40:16;8.70;;;5.97;;
43694;SDS011;29300;43.560;1.294;2022-10-16T11:43:02;6.32;;;5.65;;
43694;SDS011;29300;43.560;1.294;2022-10-16T11:45:39;8.23;;;6.78;;
43694;SDS011;29300;43.560;1.294;2022-10-16T11:48:20;11.60;;;6.57;;
43694;SDS011;29300;43.560;1.294;2022-10-16T11:50:58;7.85;;;5.95;;
43694;SDS011;29300;43.560;1.294;2022-10-16T11:53:56;7.00;;;6.30;;
43694;SDS011;29300;43.560;1.294;2022-10-16T11:56:30;9.95;;;6.45;;
43694;SDS011;29300;43.560;1.294;2022-10-16T11:59:05;6.68;;;5.68;;
43694;SDS011;29300;43.560;1.294;2022-10-16T12:01:49;8.68;;;6.22;;
43694;SDS011;29300;43.560;1.294;2022-10-16T12:04:38;7.13;;;5.85;;
43694;SDS011;29300;43.560;1.294;2022-10-16T12:09:45;8.45;;;6.18;;
43694;SDS011;29300;43.560;1.294;2022-10-16T12:17:51;7.35;;;5.45;;
43694;SDS011;29300;43.560;1.294;2022-10-16T12:23:00;9.18;;;5.55;;
43694;SDS011;29300;43.560;1.294;2022-10-16T12:30:29;7.38;;;5.18;;
43694;SDS011;29300;43.560;1.294;2022-10-16T12:32:57;7.05;;;5.40;;
43694;SDS011;29300;43.560;1.294;2022-10-16T12:35:44;6.80;;;5.22;;
43694;SDS011;29300;43.560;1.294;2022-10-16T12:43:46;5.13;;;4.65;;
43694;SDS011;29300;43.560;1.294;2022-10-16T12:48:39;8.00;;;4.75;;
43694;SDS011;29300;43.560;1.294;2022-10-16T12:51:21;7.47;;;4.47;;
43694;SDS011;29300;43.560;1.294;2022-10-16T12:54:00;5.55;;;4.22;;
43694;SDS011;29300;43.560;1.294;2022-10-16T13:05:10;6.53;;;4.30;;
43694;SDS011;29300;43.560;1.294;2022-10-16T13:22:11;3.67;;;3.30;;
43694;SDS011;29300;43.560;1.294;2022-10-16T13:29:58;3.83;;;3.47;;
43694;SDS011;29300;43.560;1.294;2022-10-16T13:32:43;4.57;;;3.25;;
43694;SDS011;29300;43.560;1.294;2022-10-16T13:35:21;5.10;;;3.30;;
43694;SDS011;29300;43.560;1.294;2022-10-16T13:37:49;3.75;;;2.85;;
43694;SDS011;29300;43.560;1.294;2022-10-16T13:40:19;3.95;;;3.20;;
43694;SDS011;29300;43.560;1.294;2022-10-16T13:42:47;3.53;;;3.20;;
43694;SDS011;29300;43.560;1.294;2022-10-16T13:45:17;5.95;;;3.28;;
43694;SDS011;29300;43.560;1.294;2022-10-16T13:50:17;3.30;;;3.00;;
43694;SDS011;29300;43.560;1.294;2022-10-16T13:52:43;4.72;;;3.25;;
43694;SDS011;29300;43.560;1.294;2022-10-16T13:55:17;2.80;;;2.55;;
43694;SDS011;29300;43.560;1.294;2022-10-16T13:57:43;4.40;;;3.15;;
43694;SDS011;29300;43.560;1.294;2022-10-16T14:00:23;4.97;;;2.72;;
43694;SDS011;29300;43.560;1.294;2022-10-16T14:03:00;4.38;;;3.15;;
43694;SDS011;29300;43.560;1.294;2022-10-16T14:05:28;5.88;;;3.20;;
43694;SDS011;29300;43.560;1.294;2022-10-16T14:07:54;4.43;;;3.30;;
43694;SDS011;29300;43.560;1.294;2022-10-16T14:10:25;3.63;;;2.75;;
43694;SDS011;29300;43.560;1.294;2022-10-16T14:13:00;6.85;;;3.83;;
43694;SDS011;29300;43.560;1.294;2022-10-16T14:15:29;4.65;;;3.08;;
43694;SDS011;29300;43.560;1.294;2022-10-16T14:17:56;5.88;;;2.78;;
43694;SDS011;29300;43.560;1.294;2022-10-16T14:20:27;3.90;;;2.60;;
43694;SDS011;29300;43.560;1.294;2022-10-16T14:23:03;3.40;;;2.80;;
43694;SDS011;29300;43.560;1.294;2022-10-16T14:25:51;3.17;;;2.53;;
43694;SDS011;29300;43.560;1.294;2022-10-16T14:28:23;7.90;;;2.90;;
43694;SDS011;29300;43.560;1.294;2022-10-16T14:30:58;3.83;;;2.60;;
43694;SDS011;29300;43.560;1.294;2022-10-16T14:38:35;3.83;;;2.40;;
43694;SDS011;29300;43.560;1.294;2022-10-16T14:41:05;2.50;;;2.30;;
43694;SDS011;29300;43.560;1.294;2022-10-16T14:43:35;3.78;;;2.50;;
43694;SDS011;29300;43.560;1.294;2022-10-16T14:46:03;3.88;;;2.65;;
43694;SDS011;29300;43.560;1.294;2022-10-16T14:48:39;5.20;;;3.40;;
43694;SDS011;29300;43.560;1.294;2022-10-16T14:51:15;3.22;;;2.88;;
43694;SDS011;29300;43.560;1.294;2022-10-16T14:53:41;6.87;;;2.60;;
43694;SDS011;29300;43.560;1.294;2022-10-16T14:56:08;2.58;;;2.30;;
43694;SDS011;29300;43.560;1.294;2022-10-16T14:58:40;3.05;;;2.70;;
43694;SDS011;29300;43.560;1.294;2022-10-16T15:01:07;2.90;;;2.25;;
43694;SDS011;29300;43.560;1.294;2022-10-16T15:03:35;6.90;;;2.45;;
43694;SDS011;29300;43.560;1.294;2022-10-16T15:06:01;5.80;;;2.70;;
43694;SDS011;29300;43.560;1.294;2022-10-16T15:08:27;4.47;;;2.75;;
43694;SDS011;29300;43.560;1.294;2022-10-16T15:10:52;3.05;;;2.55;;
43694;SDS011;29300;43.560;1.294;2022-10-16T15:13:18;5.90;;;2.72;;
43694;SDS011;29300;43.560;1.294;2022-10-16T15:15:44;4.65;;;2.65;;
43694;SDS011;29300;43.560;1.294;2022-10-16T15:18:12;4.32;;;2.47;;
43694;SDS011;29300;43.560;1.294;2022-10-16T15:20:40;8.15;;;2.88;;
43694;SDS011;29300;43.560;1.294;2022-10-16T15:23:16;5.03;;;2.80;;
43694;SDS011;29300;43.560;1.294;2022-10-16T15:28:10;5.20;;;2.72;;
43694;SDS011;29300;43.560;1.294;2022-10-16T15:30:37;4.00;;;2.45;;
43694;SDS011;29300;43.560;1.294;2022-10-16T15:33:03;4.22;;;2.80;;
43694;SDS011;29300;43.560;1.294;2022-10-16T15:35:30;3.22;;;2.35;;
43694;SDS011;29300;43.560;1.294;2022-10-16T15:37:56;4.55;;;2.72;;
43694;SDS011;29300;43.560;1.294;2022-10-16T15:40:23;4.70;;;2.63;;
43694;SDS011;29300;43.560;1.294;2022-10-16T15:42:48;3.60;;;2.80;;
43694;SDS011;29300;43.560;1.294;2022-10-16T15:45:14;3.80;;;2.40;;
43694;SDS011;29300;43.560;1.294;2022-10-16T15:47:41;4.70;;;2.80;;
43694;SDS011;29300;43.560;1.294;2022-10-16T15:50:09;3.67;;;2.42;;
43694;SDS011;29300;43.560;1.294;2022-10-16T15:52:36;4.45;;;2.50;;
43694;SDS011;29300;43.560;1.294;2022-10-16T15:55:04;8.63;;;2.85;;
43694;SDS011;29300;43.560;1.294;2022-10-16T15:57:34;6.40;;;3.08;;
43694;SDS011;29300;43.560;1.294;2022-10-16T16:00:03;4.20;;;3.13;;
43694;SDS011;29300;43.560;1.294;2022-10-16T16:02:33;4.33;;;3.20;;
43694;SDS011;29300;43.560;1.294;2022-10-16T16:04:59;6.97;;;2.80;;
43694;SDS011;29300;43.560;1.294;2022-10-16T16:07:24;8.82;;;3.53;;
43694;SDS011;29300;43.560;1.294;2022-10-16T16:09:52;4.70;;;3.03;;
43694;SDS011;29300;43.560;1.294;2022-10-16T16:12:18;3.75;;;2.60;;
43694;SDS011;29300;43.560;1.294;2022-10-16T16:14:43;4.93;;;3.20;;
43694;SDS011;29300;43.560;1.294;2022-10-16T16:17:11;5.25;;;2.83;;
43694;SDS011;29300;43.560;1.294;2022-10-16T16:19:36;6.07;;;2.88;;
43694;SDS011;29300;43.560;1.294;2022-10-16T16:22:02;5.05;;;2.88;;
43694;SDS011;29300;43.560;1.294;2022-10-16T16:24:28;5.72;;;2.88;;
43694;SDS011;29300;43.560;1.294;2022-10-16T16:26:54;4.50;;;3.03;;
43694;SDS011;29300;43.560;1.294;2022-10-16T16:29:19;7.60;;;3.53;;
43694;SDS011;29300;43.560;1.294;2022-10-16T16:31:45;4.68;;;2.90;;
43694;SDS011;29300;43.560;1.294;2022-10-16T16:34:12;4.00;;;2.70;;
43694;SDS011;29300;43.560;1.294;2022-10-16T16:36:38;3.45;;;2.60;;
43694;SDS011;29300;43.560;1.294;2022-10-16T16:39:05;9.15;;;3.13;;
43694;SDS011;29300;43.560;1.294;2022-10-16T16:41:32;4.32;;;2.50;;
43694;SDS011;29300;43.560;1.294;2022-10-16T16:44:03;4.57;;;2.70;;
43694;SDS011;29300;43.560;1.294;2022-10-16T16:46:34;6.38;;;3.05;;
43694;SDS011;29300;43.560;1.294;2022-10-16T16:49:00;5.05;;;3.40;;
43694;SDS011;29300;43.560;1.294;2022-10-16T16:51:26;4.72;;;2.97;;
43694;SDS011;29300;43.560;1.294;2022-10-16T16:53:52;5.13;;;2.80;;
43694;SDS011;29300;43.560;1.294;2022-10-16T16:56:20;4.95;;;3.08;;
43694;SDS011;29300;43.560;1.294;2022-10-16T16:58:47;6.00;;;3.15;;
43694;SDS011;29300;43.560;1.294;2022-10-16T17:01:13;5.57;;;2.70;;
43694;SDS011;29300;43.560;1.294;2022-10-16T17:03:41;5.85;;;2.75;;
43694;SDS011;29300;43.560;1.294;2022-10-16T17:06:11;4.88;;;3.30;;
43694;SDS011;29300;43.560;1.294;2022-10-16T17:08:39;4.47;;;3.20;;
43694;SDS011;29300;43.560;1.294;2022-10-16T17:11:06;7.10;;;2.90;;